Time;durP1;ratioP1;P1;durP2;ratioP2;P2;SDS_P1;SDS_P2;PMS_P1;PMS_P2;Temp;Humidity;BMP_temperature;BMP_pressure;BME280_temperature;BME280_humidity;BME280_pressure;Samples;Min_cycle;Max_cycle;Signal;HPM_P1;HPM_P2
2023/09/18 00:00:08;;;;;;;6.53;4.80;;;;;;;;;;5023536;28;20231;-85
2023/09/18 00:02:36;;;;;;;5.13;4.70;;;;;;;;;;5033908;28;20238;-85
2023/09/18 00:05:02;;;;;;;4.88;4.57;;;;;;;;;;4999000;28;20224;-87
2023/09/18 00:07:29;;;;;;;5.28;4.75;;;;;;;;;;5028641;28;20220;-85
2023/09/18 00:09:55;;;;;;;5.43;5.00;;;;;;;;;;5014997;28;20224;-85
2023/09/18 00:12:23;;;;;;;5.50;5.10;;;;;;;;;;5021395;28;20223;-85
2023/09/18 00:14:51;;;;;;;4.95;4.55;;;;;;;;;;5021651;28;20227;-86
2023/09/18 00:17:22;;;;;;;5.22;4.72;;;;;;;;;;5022051;28;20215;-86
2023/09/18 00:19:53;;;;;;;4.82;4.50;;;;;;;;;;5033362;28;20313;-87
2023/09/18 00:22:19;;;;;;;5.18;4.75;;;;;;;;;;5006130;28;20238;-87
2023/09/18 00:24:44;;;;;;;5.20;4.80;;;;;;;;;;5031718;28;20214;-86
2023/09/18 00:27:11;;;;;;;5.22;4.55;;;;;;;;;;5012647;28;20710;-84
2023/09/18 00:29:39;;;;;;;5.53;5.03;;;;;;;;;;5001436;28;20246;-86
2023/09/18 00:32:07;;;;;;;4.75;4.35;;;;;;;;;;5005233;28;20246;-85
2023/09/18 00:34:34;;;;;;;5.57;5.07;;;;;;;;;;5004382;28;20215;-84
2023/09/18 00:37:02;;;;;;;4.93;4.63;;;;;;;;;;4994065;28;20296;-86
2023/09/18 00:39:27;;;;;;;5.20;4.80;;;;;;;;;;4992706;28;20859;-85
2023/09/18 00:41:54;;;;;;;5.07;4.68;;;;;;;;;;5000492;28;20281;-85
2023/09/18 00:44:26;;;;;;;5.40;5.00;;;;;;;;;;4986818;28;20274;-86
2023/09/18 00:46:52;;;;;;;5.15;4.65;;;;;;;;;;4990873;28;20426;-86
2023/09/18 00:49:20;;;;;;;5.35;4.97;;;;;;;;;;4985142;28;20204;-86
2023/09/18 00:51:47;;;;;;;4.70;4.40;;;;;;;;;;5032338;28;20222;-85
2023/09/18 00:54:12;;;;;;;5.43;5.03;;;;;;;;;;5030838;28;20688;-85
2023/09/18 00:56:38;;;;;;;5.63;5.13;;;;;;;;;;5012183;28;20307;-84
2023/09/18 00:59:05;;;;;;;5.47;5.07;;;;;;;;;;5009078;28;20224;-84
2023/09/18 01:01:36;;;;;;;7.22;4.90;;;;;;;;;;5010849;28;20517;-84
2023/09/18 01:04:04;;;;;;;5.10;4.70;;;;;;;;;;5022060;28;20649;-85
2023/09/18 01:06:31;;;;;;;5.70;5.20;;;;;;;;;;5025211;28;20659;-85
2023/09/18 01:08:59;;;;;;;4.80;4.50;;;;;;;;;;5017445;28;20231;-85
2023/09/18 01:11:37;;;;;;;6.13;5.20;;;;;;;;;;5008319;28;20215;-84
2023/09/18 01:14:05;;;;;;;5.13;4.63;;;;;;;;;;5030436;28;20594;-84
2023/09/18 01:16:43;;;;;;;5.07;4.78;;;;;;;;;;5028983;28;20789;-85
2023/09/18 01:19:09;;;;;;;5.10;4.80;;;;;;;;;;5016492;28;20230;-84
2023/09/18 01:21:37;;;;;;;5.32;4.93;;;;;;;;;;5028912;28;20237;-84
2023/09/18 01:24:03;;;;;;;5.28;4.78;;;;;;;;;;5010818;28;20303;-84
2023/09/18 01:26:30;;;;;;;5.90;4.72;;;;;;;;;;5034636;28;20275;-84
2023/09/18 01:29:00;;;;;;;5.35;4.85;;;;;;;;;;5020026;28;20301;-84
2023/09/18 01:31:30;;;;;;;6.30;5.15;;;;;;;;;;5030002;28;20298;-84
2023/09/18 01:33:58;;;;;;;5.53;5.13;;;;;;;;;;5021751;28;20216;-85
2023/09/18 01:36:23;;;;;;;6.35;5.53;;;;;;;;;;5045336;28;20224;-84
2023/09/18 01:38:49;;;;;;;5.60;5.10;;;;;;;;;;5008362;28;20696;-84
2023/09/18 01:41:14;;;;;;;5.07;4.65;;;;;;;;;;5017835;28;20234;-84
2023/09/18 01:43:40;;;;;;;5.47;4.97;;;;;;;;;;5019206;28;20573;-84
2023/09/18 01:46:08;;;;;;;5.38;4.63;;;;;;;;;;4999989;28;20214;-84
2023/09/18 01:48:33;;;;;;;6.05;5.50;;;;;;;;;;5027329;28;20207;-85
2023/09/18 01:50:59;;;;;;;5.20;4.80;;;;;;;;;;5034767;28;20249;-85
2023/09/18 01:53:27;;;;;;;5.07;4.65;;;;;;;;;;5040817;28;20249;-85
2023/09/18 01:55:55;;;;;;;6.03;5.55;;;;;;;;;;5019314;28;20227;-85
2023/09/18 01:58:21;;;;;;;5.30;4.90;;;;;;;;;;4998789;28;20216;-84
2023/09/18 02:00:46;;;;;;;7.25;5.18;;;;;;;;;;5026965;28;20220;-85
2023/09/18 02:03:18;;;;;;;9.60;5.50;;;;;;;;;;5024910;28;20219;-84
2023/09/18 02:05:45;;;;;;;5.18;4.70;;;;;;;;;;5013245;28;20408;-84
2023/09/18 02:08:11;;;;;;;4.70;4.40;;;;;;;;;;5008102;28;20219;-84
2023/09/18 02:10:36;;;;;;;5.68;5.22;;;;;;;;;;5005523;28;20220;-84
2023/09/18 02:13:03;;;;;;;5.18;4.68;;;;;;;;;;5021238;28;20212;-83
2023/09/18 02:15:31;;;;;;;5.07;4.57;;;;;;;;;;5011379;28;20347;-85
2023/09/18 02:17:59;;;;;;;5.78;5.18;;;;;;;;;;5018767;28;20214;-85
2023/09/18 02:20:27;;;;;;;5.22;4.72;;;;;;;;;;5007195;28;20319;-84
2023/09/18 02:22:52;;;;;;;5.25;4.88;;;;;;;;;;5031537;28;20223;-84
2023/09/18 02:25:18;;;;;;;4.93;4.53;;;;;;;;;;5010425;28;20224;-84
2023/09/18 02:27:45;;;;;;;4.93;4.43;;;;;;;;;;5011046;28;20289;-84
2023/09/18 02:30:14;;;;;;;4.45;4.13;;;;;;;;;;5028192;28;20239;-85
2023/09/18 02:32:39;;;;;;;4.88;4.47;;;;;;;;;;5009261;28;20222;-84
2023/09/18 02:35:10;;;;;;;4.63;4.22;;;;;;;;;;5001544;28;20231;-84
2023/09/18 02:37:35;;;;;;;5.63;4.75;;;;;;;;;;5018112;28;20242;-84
2023/09/18 02:40:01;;;;;;;4.68;4.38;;;;;;;;;;5012368;28;20695;-84
2023/09/18 02:42:26;;;;;;;4.70;4.30;;;;;;;;;;5005600;28;20226;-84
2023/09/18 02:44:54;;;;;;;5.00;4.60;;;;;;;;;;5014983;28;20207;-83
2023/09/18 02:47:21;;;;;;;5.40;4.70;;;;;;;;;;5022657;28;20225;-84
2023/09/18 02:49:56;;;;;;;5.18;4.78;;;;;;;;;;5020493;28;20535;-85
2023/09/18 02:52:22;;;;;;;5.53;5.13;;;;;;;;;;5028901;28;20279;-86
2023/09/18 02:54:52;;;;;;;5.05;4.60;;;;;;;;;;5014187;28;20764;-86
2023/09/18 02:57:20;;;;;;;4.75;4.35;;;;;;;;;;5002925;28;20370;-86
2023/09/18 02:59:46;;;;;;;4.63;4.22;;;;;;;;;;5004443;28;20232;-86
2023/09/18 03:02:17;;;;;;;5.45;4.72;;;;;;;;;;5005638;28;20223;-88
2023/09/18 03:04:42;;;;;;;4.63;4.30;;;;;;;;;;5009410;28;20212;-85
2023/09/18 03:07:12;;;;;;;5.78;4.82;;;;;;;;;;5008746;28;20294;-86
2023/09/18 03:09:40;;;;;;;5.00;4.60;;;;;;;;;;5004692;28;20728;-87
2023/09/18 03:12:06;;;;;;;5.20;4.80;;;;;;;;;;5008133;28;20220;-86
2023/09/18 03:14:34;;;;;;;9.85;8.32;;;;;;;;;;5016050;28;20222;-87
2023/09/18 03:17:02;;;;;;;6.65;5.10;;;;;;;;;;5008336;28;20293;-86
2023/09/18 03:19:27;;;;;;;4.88;4.45;;;;;;;;;;5005734;28;20726;-87
2023/09/18 03:21:53;;;;;;;7.68;4.82;;;;;;;;;;5012858;28;20289;-86
2023/09/18 03:24:21;;;;;;;4.88;4.20;;;;;;;;;;5004859;28;20216;-86
2023/09/18 03:26:47;;;;;;;5.22;4.57;;;;;;;;;;5002090;28;20226;-87
2023/09/18 03:29:19;;;;;;;5.88;4.82;;;;;;;;;;5004589;28;20207;-87
2023/09/18 03:31:49;;;;;;;5.25;4.82;;;;;;;;;;5005364;28;20995;-87
2023/09/18 03:34:16;;;;;;;5.63;5.22;;;;;;;;;;5005838;28;20219;-86
2023/09/18 03:36:41;;;;;;;5.30;4.90;;;;;;;;;;5003536;28;20223;-86
2023/09/18 03:39:07;;;;;;;6.03;4.65;;;;;;;;;;5005059;28;20229;-86
2023/09/18 03:41:34;;;;;;;5.40;4.90;;;;;;;;;;5007814;28;20227;-86
2023/09/18 03:44:00;;;;;;;6.28;5.18;;;;;;;;;;5008733;28;20267;-87
2023/09/18 03:46:26;;;;;;;5.43;4.93;;;;;;;;;;5029542;28;20221;-86
2023/09/18 03:48:52;;;;;;;4.82;4.40;;;;;;;;;;5004173;28;20226;-85
2023/09/18 03:51:19;;;;;;;4.78;4.40;;;;;;;;;;5018458;28;20235;-87
2023/09/18 03:53:44;;;;;;;5.35;4.85;;;;;;;;;;5015472;28;20220;-86
2023/09/18 03:56:12;;;;;;;5.68;5.25;;;;;;;;;;5018433;28;20216;-85
2023/09/18 03:58:40;;;;;;;5.03;4.40;;;;;;;;;;5014415;28;20235;-88
2023/09/18 04:04:57;;;;;;;4.40;4.10;;;;;;;;;;5053309;28;20872;-87
2023/09/18 04:07:23;;;;;;;5.72;4.35;;;;;;;;;;5021165;28;20231;-87
2023/09/18 04:09:50;;;;;;;5.78;5.28;;;;;;;;;;5017151;28;20212;-87
2023/09/18 04:12:17;;;;;;;4.82;4.43;;;;;;;;;;5008106;28;20223;-87
2023/09/18 04:14:45;;;;;;;4.82;4.30;;;;;;;;;;5005079;28;20208;-87
2023/09/18 04:17:13;;;;;;;4.80;4.40;;;;;;;;;;5010047;28;20245;-87
2023/09/18 04:19:43;;;;;;;4.93;4.47;;;;;;;;;;5021931;28;20235;-87
2023/09/18 04:22:08;;;;;;;4.82;4.40;;;;;;;;;;5016519;28;20273;-85
2023/09/18 04:24:36;;;;;;;4.78;4.38;;;;;;;;;;5011423;28;20706;-87
2023/09/18 04:27:02;;;;;;;5.80;5.20;;;;;;;;;;5016828;28;20224;-86
2023/09/18 04:29:30;;;;;;;5.45;4.72;;;;;;;;;;5018869;28;20250;-87
2023/09/18 04:31:57;;;;;;;5.07;4.57;;;;;;;;;;5015056;28;20334;-79
2023/09/18 04:34:23;;;;;;;5.10;4.70;;;;;;;;;;5015242;28;20218;-79
2023/09/18 04:36:51;;;;;;;5.10;4.60;;;;;;;;;;5030404;28;20219;-79
2023/09/18 04:39:19;;;;;;;4.50;4.20;;;;;;;;;;5030098;28;20230;-80
2023/09/18 04:41:46;;;;;;;5.63;4.93;;;;;;;;;;5022066;28;20687;-78
2023/09/18 04:44:15;;;;;;;4.85;4.35;;;;;;;;;;5028968;28;20210;-79
2023/09/18 04:46:42;;;;;;;5.45;4.95;;;;;;;;;;5030252;28;20434;-78
2023/09/18 04:49:10;;;;;;;5.25;4.75;;;;;;;;;;5018700;28;20239;-78
2023/09/18 04:51:39;;;;;;;4.97;4.45;;;;;;;;;;5021769;28;20223;-79
2023/09/18 04:54:06;;;;;;;4.65;4.35;;;;;;;;;;5040707;28;20267;-79
2023/09/18 04:56:34;;;;;;;6.40;4.80;;;;;;;;;;5041613;28;20214;-79
2023/09/18 04:59:00;;;;;;;5.45;4.93;;;;;;;;;;5027241;28;20231;-79
2023/09/18 05:01:26;;;;;;;5.00;4.50;;;;;;;;;;5009416;28;20223;-80
2023/09/18 05:03:55;;;;;;;5.30;4.78;;;;;;;;;;4996557;28;20844;-79
2023/09/18 05:06:24;;;;;;;5.22;4.72;;;;;;;;;;5015816;28;20280;-80
2023/09/18 05:08:53;;;;;;;5.30;4.80;;;;;;;;;;5027597;28;20200;-80
2023/09/18 05:11:21;;;;;;;6.80;5.10;;;;;;;;;;5049495;28;20318;-79
2023/09/18 05:13:49;;;;;;;5.15;4.53;;;;;;;;;;5013102;28;20233;-78
2023/09/18 05:16:18;;;;;;;4.72;4.40;;;;;;;;;;5044260;28;20856;-79
2023/09/18 05:18:44;;;;;;;5.03;4.28;;;;;;;;;;5042275;28;20231;-80
2023/09/18 05:21:09;;;;;;;4.72;4.32;;;;;;;;;;5015266;28;20229;-80
2023/09/18 05:23:36;;;;;;;5.53;5.00;;;;;;;;;;5014188;28;20219;-80
2023/09/18 05:26:01;;;;;;;4.80;4.40;;;;;;;;;;5029366;28;20251;-80
2023/09/18 05:28:29;;;;;;;4.85;4.45;;;;;;;;;;5013883;28;20255;-80
2023/09/18 05:30:54;;;;;;;5.10;4.60;;;;;;;;;;5049730;28;20234;-80
2023/09/18 05:33:20;;;;;;;5.55;5.05;;;;;;;;;;5019425;28;20220;-80
2023/09/18 05:35:48;;;;;;;4.70;4.30;;;;;;;;;;5011896;28;20223;-79
2023/09/18 05:38:18;;;;;;;4.65;3.90;;;;;;;;;;5010566;28;20212;-79
2023/09/18 05:40:44;;;;;;;4.97;4.50;;;;;;;;;;5012035;28;20314;-79
2023/09/18 05:43:12;;;;;;;5.35;4.85;;;;;;;;;;5013221;28;20891;-79
2023/09/18 05:45:38;;;;;;;4.93;4.50;;;;;;;;;;5014677;28;20223;-78
2023/09/18 05:48:04;;;;;;;5.88;4.90;;;;;;;;;;5017756;28;20211;-80
2023/09/18 05:50:31;;;;;;;5.20;4.78;;;;;;;;;;5060708;28;20585;-79
2023/09/18 05:53:00;;;;;;;4.68;4.25;;;;;;;;;;5017581;28;20204;-79
2023/09/18 05:55:29;;;;;;;5.22;4.70;;;;;;;;;;5024772;28;20228;-79
2023/09/18 05:57:55;;;;;;;3.85;3.65;;;;;;;;;;5026110;28;20231;-78
2023/09/18 06:00:21;;;;;;;4.93;4.50;;;;;;;;;;5025342;28;20522;-79
2023/09/18 06:02:51;;;;;;;5.53;4.13;;;;;;;;;;5027820;28;20212;-80
2023/09/18 06:05:22;;;;;;;5.15;4.55;;;;;;;;;;5028401;28;20231;-80
2023/09/18 06:07:53;;;;;;;4.40;4.00;;;;;;;;;;5019264;28;20238;-80
2023/09/18 06:10:21;;;;;;;4.53;4.13;;;;;;;;;;5027656;28;20223;-79
2023/09/18 06:12:46;;;;;;;4.97;4.15;;;;;;;;;;5045000;28;20226;-79
2023/09/18 06:15:14;;;;;;;4.50;4.07;;;;;;;;;;5006728;28;20219;-79
2023/09/18 06:17:41;;;;;;;4.93;4.53;;;;;;;;;;5046373;28;20243;-80
2023/09/18 06:20:10;;;;;;;4.88;4.47;;;;;;;;;;5012840;28;20258;-79
2023/09/18 06:22:37;;;;;;;4.55;4.20;;;;;;;;;;5023443;28;20602;-78
2023/09/18 06:25:03;;;;;;;4.60;4.20;;;;;;;;;;5027691;28;20226;-79
2023/09/18 06:27:34;;;;;;;4.70;4.30;;;;;;;;;;5009323;28;20216;-79
2023/09/18 06:30:04;;;;;;;5.40;4.22;;;;;;;;;;5022538;28;20292;-78
2023/09/18 06:32:32;;;;;;;4.10;3.70;;;;;;;;;;5011929;28;20223;-80
2023/09/18 06:35:00;;;;;;;4.32;4.00;;;;;;;;;;5030535;28;20403;-80
2023/09/18 06:37:26;;;;;;;5.25;3.90;;;;;;;;;;5023637;28;20210;-80
2023/09/18 06:39:51;;;;;;;4.07;3.78;;;;;;;;;;5027991;28;20223;-79
2023/09/18 06:42:17;;;;;;;4.30;3.97;;;;;;;;;;5023017;28;20691;-79
2023/09/18 06:44:43;;;;;;;4.93;4.40;;;;;;;;;;5008324;28;20211;-79
2023/09/18 06:47:08;;;;;;;4.63;4.30;;;;;;;;;;5043539;28;20220;-79
2023/09/18 06:49:34;;;;;;;7.07;6.40;;;;;;;;;;5023075;28;20345;-79
2023/09/18 06:52:00;;;;;;;6.95;6.25;;;;;;;;;;5010855;28;20215;-80
2023/09/18 06:54:25;;;;;;;5.28;4.60;;;;;;;;;;5024528;28;20223;-80
2023/09/18 06:56:51;;;;;;;4.22;3.83;;;;;;;;;;5021227;28;20700;-80
2023/09/18 06:59:16;;;;;;;4.30;3.90;;;;;;;;;;5009666;28;20227;-79
2023/09/18 07:01:44;;;;;;;4.20;3.88;;;;;;;;;;5057627;28;20215;-79
2023/09/18 07:04:12;;;;;;;4.20;3.80;;;;;;;;;;5024730;28;20230;-79
2023/09/18 07:06:38;;;;;;;4.38;3.97;;;;;;;;;;5009653;28;20267;-80
2023/09/18 07:09:06;;;;;;;6.35;4.07;;;;;;;;;;4994591;28;20222;-79
2023/09/18 07:11:33;;;;;;;3.92;3.63;;;;;;;;;;5007481;28;20222;-79
2023/09/18 07:13:59;;;;;;;4.07;3.78;;;;;;;;;;5010769;28;20260;-79
2023/09/18 07:16:25;;;;;;;4.57;3.65;;;;;;;;;;5023060;28;21041;-79
2023/09/18 07:18:53;;;;;;;3.78;3.47;;;;;;;;;;5006537;28;20223;-78
2023/09/18 07:21:18;;;;;;;4.13;3.72;;;;;;;;;;5005020;28;20234;-78
2023/09/18 07:23:46;;;;;;;4.63;3.63;;;;;;;;;;5024562;28;20227;-78
2023/09/18 07:26:11;;;;;;;4.18;3.60;;;;;;;;;;5012171;28;20207;-78
2023/09/18 07:28:40;;;;;;;3.85;3.45;;;;;;;;;;5008812;28;20710;-78
2023/09/18 07:31:08;;;;;;;4.05;3.63;;;;;;;;;;5036131;28;20266;-80
2023/09/18 07:33:34;;;;;;;4.35;3.90;;;;;;;;;;5037158;28;20226;-79
2023/09/18 07:35:59;;;;;;;4.65;3.78;;;;;;;;;;5020225;28;20207;-80
2023/09/18 07:38:27;;;;;;;3.65;3.45;;;;;;;;;;5003302;28;20226;-78
2023/09/18 07:40:56;;;;;;;3.60;3.30;;;;;;;;;;5025320;28;20218;-80
2023/09/18 07:43:22;;;;;;;4.03;3.55;;;;;;;;;;5054163;28;20421;-80
2023/09/18 07:45:49;;;;;;;3.83;3.53;;;;;;;;;;5021491;28;20414;-80
2023/09/18 07:48:17;;;;;;;4.55;4.10;;;;;;;;;;5036817;28;20256;-79
2023/09/18 07:50:49;;;;;;;4.15;3.70;;;;;;;;;;5023524;28;20273;-77
2023/09/18 07:53:15;;;;;;;4.85;4.38;;;;;;;;;;5010559;28;20221;-77
2023/09/18 07:55:40;;;;;;;5.65;5.15;;;;;;;;;;5004213;28;20397;-77
2023/09/18 07:58:11;;;;;;;6.47;4.60;;;;;;;;;;5006268;28;20885;-78
2023/09/18 08:00:39;;;;;;;6.00;5.40;;;;;;;;;;5022034;28;20239;-76
2023/09/18 08:03:07;;;;;;;6.38;5.75;;;;;;;;;;5003069;28;20215;-78
2023/09/18 08:05:32;;;;;;;6.00;5.50;;;;;;;;;;5033610;28;20234;-77
2023/09/18 08:08:04;;;;;;;6.50;5.90;;;;;;;;;;5020372;28;20295;-77
2023/09/18 08:10:32;;;;;;;8.85;6.18;;;;;;;;;;5020622;28;20250;-76
2023/09/18 08:12:58;;;;;;;6.10;5.60;;;;;;;;;;4998812;28;20219;-77
2023/09/18 08:15:29;;;;;;;6.88;6.30;;;;;;;;;;5007334;28;20219;-77
2023/09/18 08:18:00;;;;;;;7.47;6.55;;;;;;;;;;5020153;28;20218;-77
2023/09/18 08:20:26;;;;;;;8.30;5.97;;;;;;;;;;5034765;28;20235;-78
2023/09/18 08:22:54;;;;;;;6.60;6.03;;;;;;;;;;5020612;28;20223;-78
2023/09/18 08:25:24;;;;;;;7.22;6.65;;;;;;;;;;5019628;28;20229;-79
2023/09/18 08:27:49;;;;;;;7.63;7.03;;;;;;;;;;5007644;28;20340;-77
2023/09/18 08:30:20;;;;;;;7.53;6.70;;;;;;;;;;5005205;28;20214;-78
2023/09/18 08:32:46;;;;;;;7.35;6.75;;;;;;;;;;5024774;28;20789;-76
2023/09/18 08:35:11;;;;;;;7.88;7.28;;;;;;;;;;5026467;28;20215;-79
2023/09/18 08:37:39;;;;;;;7.75;6.75;;;;;;;;;;5041926;28;21081;-80
2023/09/18 08:40:13;;;;;;;7.78;7.07;;;;;;;;;;5010532;28;20231;-76
2023/09/18 08:42:40;;;;;;;7.15;6.60;;;;;;;;;;5028895;28;20229;-79
2023/09/18 08:45:33;;;;;;;6.75;6.15;;;;;;;;;;5027542;28;20241;-76
2023/09/18 08:48:01;;;;;;;7.10;6.60;;;;;;;;;;5027502;28;20227;-77
2023/09/18 08:50:26;;;;;;;6.57;6.07;;;;;;;;;;5008545;28;20318;-77
2023/09/18 08:52:52;;;;;;;6.35;5.75;;;;;;;;;;5008604;28;20310;-77
2023/09/18 08:55:20;;;;;;;6.35;5.80;;;;;;;;;;5031909;28;20226;-79
2023/09/18 08:57:48;;;;;;;6.82;6.32;;;;;;;;;;5006990;28;20731;-79
2023/09/18 09:00:17;;;;;;;6.40;5.80;;;;;;;;;;5016984;28;20284;-77
2023/09/18 09:02:48;;;;;;;5.75;5.35;;;;;;;;;;4995943;28;20234;-79
2023/09/18 09:05:14;;;;;;;6.75;4.88;;;;;;;;;;4996282;28;20244;-78
2023/09/18 09:07:39;;;;;;;5.10;4.80;;;;;;;;;;5023199;28;20295;-79
2023/09/18 09:10:05;;;;;;;6.60;5.38;;;;;;;;;;5014593;28;20273;-77
2023/09/18 09:12:48;;;;;;;5.68;5.05;;;;;;;;;;5023202;28;20215;-77
2023/09/18 09:15:14;;;;;;;5.95;4.85;;;;;;;;;;5027873;28;20223;-78
2023/09/18 09:17:40;;;;;;;4.93;4.38;;;;;;;;;;5024581;28;20222;-78
2023/09/18 09:20:11;;;;;;;5.10;4.05;;;;;;;;;;5009523;28;20223;-78
2023/09/18 09:22:40;;;;;;;4.68;4.28;;;;;;;;;;5025407;28;20246;-80
2023/09/18 09:25:31;;;;;;;4.45;4.10;;;;;;;;;;5026827;28;20311;-78
2023/09/18 09:27:57;;;;;;;6.88;4.10;;;;;;;;;;5026013;28;20229;-80
2023/09/18 09:30:27;;;;;;;4.13;3.60;;;;;;;;;;5025014;28;21379;-80
2023/09/18 09:32:53;;;;;;;3.90;3.60;;;;;;;;;;5008080;28;20785;-79
2023/09/18 09:35:29;;;;;;;4.07;3.78;;;;;;;;;;5005556;28;20224;-78
2023/09/18 09:38:07;;;;;;;4.85;3.58;;;;;;;;;;5009239;28;20776;-78
2023/09/18 09:40:35;;;;;;;4.70;3.70;;;;;;;;;;5040044;28;20241;-78
2023/09/18 09:43:01;;;;;;;3.83;3.53;;;;;;;;;;5008111;28;20219;-78
2023/09/18 09:45:35;;;;;;;5.97;3.58;;;;;;;;;;5007337;28;20227;-79
2023/09/18 09:48:04;;;;;;;3.95;3.40;;;;;;;;;;5007629;28;20211;-79
2023/09/18 09:50:29;;;;;;;4.97;3.47;;;;;;;;;;5008840;28;20223;-79
2023/09/18 09:52:56;;;;;;;3.30;3.00;;;;;;;;;;5022503;28;20318;-79
2023/09/18 09:55:29;;;;;;;6.40;3.75;;;;;;;;;;5007549;28;20220;-78
2023/09/18 09:57:57;;;;;;;5.00;3.22;;;;;;;;;;5060576;28;20699;-78
2023/09/18 10:00:49;;;;;;;3.75;3.30;;;;;;;;;;5026723;28;20631;-78
2023/09/18 10:03:17;;;;;;;3.40;3.10;;;;;;;;;;5054344;28;20255;-79
2023/09/18 10:05:44;;;;;;;3.45;3.00;;;;;;;;;;5008603;28;20376;-81
2023/09/18 10:08:19;;;;;;;5.47;3.25;;;;;;;;;;5041453;28;20211;-79
2023/09/18 10:10:55;;;;;;;6.80;3.20;;;;;;;;;;5029476;28;20238;-78
2023/09/18 10:13:27;;;;;;;3.83;3.00;;;;;;;;;;5020863;28;20763;-78
2023/09/18 10:15:53;;;;;;;5.80;3.10;;;;;;;;;;5026617;28;20211;-80
2023/09/18 10:18:38;;;;;;;4.40;3.30;;;;;;;;;;5008443;28;20573;-79
2023/09/18 10:21:20;;;;;;;3.28;2.97;;;;;;;;;;5017504;28;20319;-77
2023/09/18 10:24:04;;;;;;;2.78;2.35;;;;;;;;;;5044733;28;20218;-77
2023/09/18 10:26:30;;;;;;;3.97;2.83;;;;;;;;;;5043485;28;20227;-78
2023/09/18 10:28:59;;;;;;;3.42;3.00;;;;;;;;;;5014580;28;20242;-78
2023/09/18 10:31:28;;;;;;;2.97;2.53;;;;;;;;;;5037728;28;20306;-79
2023/09/18 10:33:55;;;;;;;6.72;3.00;;;;;;;;;;5011909;28;20625;-80
2023/09/18 10:36:22;;;;;;;9.93;7.13;;;;;;;;;;5022220;28;20238;-79
2023/09/18 10:38:51;;;;;;;4.55;2.30;;;;;;;;;;5017519;28;20307;-77
2023/09/18 10:41:20;;;;;;;3.38;2.45;;;;;;;;;;4993127;28;20229;-77
2023/09/18 10:43:47;;;;;;;3.55;2.38;;;;;;;;;;5023650;28;20314;-79
2023/09/18 10:46:15;;;;;;;3.88;2.55;;;;;;;;;;5035756;28;20301;-77
2023/09/18 10:48:44;;;;;;;3.80;2.35;;;;;;;;;;5006833;28;20219;-77
2023/09/18 10:51:10;;;;;;;4.65;2.20;;;;;;;;;;5011367;28;20222;-76
2023/09/18 10:53:35;;;;;;;2.88;2.22;;;;;;;;;;5019780;28;20333;-77
2023/09/18 10:56:04;;;;;;;2.53;2.20;;;;;;;;;;5026982;28;20306;-78
2023/09/18 10:58:35;;;;;;;7.47;2.38;;;;;;;;;;5025606;28;20231;-77
2023/09/18 11:01:04;;;;;;;6.15;2.45;;;;;;;;;;5013557;28;20234;-77
2023/09/18 11:03:39;;;;;;;3.95;2.35;;;;;;;;;;5031126;28;20230;-77
2023/09/18 11:06:10;;;;;;;2.78;1.98;;;;;;;;;;5041958;28;20773;-78
2023/09/18 11:09:04;;;;;;;3.88;2.08;;;;;;;;;;5045342;28;20227;-77
2023/09/18 11:11:32;;;;;;;5.63;2.10;;;;;;;;;;5029928;28;20237;-77
2023/09/18 11:14:01;;;;;;;3.15;2.35;;;;;;;;;;5012985;28;20215;-76
2023/09/18 11:16:27;;;;;;;6.53;2.42;;;;;;;;;;5046029;28;20300;-79
2023/09/18 11:18:58;;;;;;;3.10;2.05;;;;;;;;;;5062488;28;20251;-76
2023/09/18 11:21:27;;;;;;;3.47;2.10;;;;;;;;;;5041960;28;20243;-76
2023/09/18 11:24:05;;;;;;;4.60;1.88;;;;;;;;;;5028861;28;20350;-77
2023/09/18 11:26:32;;;;;;;5.78;2.25;;;;;;;;;;5006099;28;20230;-78
2023/09/18 11:29:09;;;;;;;3.65;2.00;;;;;;;;;;5009292;28;20212;-78
2023/09/18 11:31:54;;;;;;;2.00;1.65;;;;;;;;;;5012875;28;20327;-80
2023/09/18 11:34:22;;;;;;;3.00;2.25;;;;;;;;;;5030015;28;20230;-76
2023/09/18 11:36:48;;;;;;;2.50;2.00;;;;;;;;;;5030801;28;20215;-79
2023/09/18 11:39:14;;;;;;;3.53;1.83;;;;;;;;;;5005646;28;20240;-78
2023/09/18 11:41:41;;;;;;;4.03;1.90;;;;;;;;;;5010872;28;20272;-79
2023/09/18 11:44:23;;;;;;;3.47;1.58;;;;;;;;;;5024005;28;20327;-82
2023/09/18 11:46:53;;;;;;;6.05;2.10;;;;;;;;;;5010687;28;20230;-81
2023/09/18 11:49:22;;;;;;;2.97;1.73;;;;;;;;;;5022220;28;20227;-77
2023/09/18 11:51:48;;;;;;;1.80;1.45;;;;;;;;;;5010694;28;20828;-78
2023/09/18 11:54:13;;;;;;;1.77;1.40;;;;;;;;;;5011811;28;20214;-79
2023/09/18 11:56:39;;;;;;;3.15;1.67;;;;;;;;;;5012205;28;20221;-79
2023/09/18 11:59:06;;;;;;;2.03;1.60;;;;;;;;;;5039321;28;20219;-78
2023/09/18 12:01:35;;;;;;;2.45;1.73;;;;;;;;;;5025318;28;20250;-79
2023/09/18 12:04:01;;;;;;;2.55;1.33;;;;;;;;;;5024552;28;20211;-78
2023/09/18 12:06:27;;;;;;;2.85;1.75;;;;;;;;;;5014855;28;20230;-78
2023/09/18 12:08:53;;;;;;;2.30;1.48;;;;;;;;;;5042653;28;20207;-78
2023/09/18 12:11:19;;;;;;;4.95;1.90;;;;;;;;;;4989152;28;20392;-79
2023/09/18 12:13:50;;;;;;;3.15;1.63;;;;;;;;;;5043059;28;20210;-79
2023/09/18 12:16:15;;;;;;;2.92;1.80;;;;;;;;;;5020831;28;20762;-79
2023/09/18 12:18:48;;;;;;;4.78;1.73;;;;;;;;;;5023886;28;20214;-79
2023/09/18 12:21:15;;;;;;;2.35;1.67;;;;;;;;;;5002733;28;20318;-79
2023/09/18 12:23:42;;;;;;;6.55;1.42;;;;;;;;;;5016511;28;20229;-78
2023/09/18 12:26:10;;;;;;;5.05;1.48;;;;;;;;;;5004242;28;20212;-77
2023/09/18 12:28:38;;;;;;;1.85;1.60;;;;;;;;;;5020778;28;20215;-78
2023/09/18 12:31:06;;;;;;;1.92;1.48;;;;;;;;;;5001091;28;20254;-78
2023/09/18 12:33:36;;;;;;;4.22;1.60;;;;;;;;;;5019091;28;20223;-78
2023/09/18 12:36:03;;;;;;;1.90;1.55;;;;;;;;;;5003506;28;20241;-79
2023/09/18 12:38:29;;;;;;;2.70;1.40;;;;;;;;;;5004115;28;20217;-80
2023/09/18 12:40:54;;;;;;;2.17;1.60;;;;;;;;;;5018764;28;20303;-78
2023/09/18 12:43:22;;;;;;;2.33;1.50;;;;;;;;;;5020906;28;20219;-78
2023/09/18 12:45:49;;;;;;;1.48;1.38;;;;;;;;;;5035715;28;21371;-77
2023/09/18 12:48:14;;;;;;;3.30;1.40;;;;;;;;;;5021371;28;20219;-77
2023/09/18 12:50:40;;;;;;;1.88;1.30;;;;;;;;;;5004398;28;20226;-77
2023/09/18 12:53:16;;;;;;;3.45;1.20;;;;;;;;;;5036314;28;20381;-77
2023/09/18 12:55:44;;;;;;;2.85;1.52;;;;;;;;;;4991842;28;20636;-77
2023/09/18 12:58:13;;;;;;;2.55;1.40;;;;;;;;;;5033354;28;20242;-77
2023/09/18 13:00:45;;;;;;;6.43;1.58;;;;;;;;;;5013348;28;20231;-76
2023/09/18 13:03:13;;;;;;;2.30;1.45;;;;;;;;;;5019155;28;20219;-77
2023/09/18 13:05:39;;;;;;;4.47;1.52;;;;;;;;;;5004290;28;20234;-77
2023/09/18 13:08:05;;;;;;;2.58;1.38;;;;;;;;;;5005288;28;20278;-77
2023/09/18 13:10:49;;;;;;;4.43;1.60;;;;;;;;;;5031853;28;20230;-80
2023/09/18 13:13:25;;;;;;;2.15;1.67;;;;;;;;;;5002347;28;20230;-77
2023/09/18 13:15:59;;;;;;;2.85;1.70;;;;;;;;;;5032722;28;20219;-76
2023/09/18 13:18:25;;;;;;;2.20;1.60;;;;;;;;;;5020946;28;20860;-78
2023/09/18 13:20:53;;;;;;;2.80;1.50;;;;;;;;;;5006999;28;20239;-78
2023/09/18 13:23:27;;;;;;;3.08;1.55;;;;;;;;;;5019612;28;20251;-80
2023/09/18 13:25:59;;;;;;;2.97;1.70;;;;;;;;;;5007986;28;20711;-78
2023/09/18 13:28:26;;;;;;;2.45;1.40;;;;;;;;;;5006686;28;20223;-77
2023/09/18 13:30:54;;;;;;;3.00;1.40;;;;;;;;;;5019739;28;20230;-77
2023/09/18 13:33:20;;;;;;;3.47;1.48;;;;;;;;;;5017322;28;20258;-79
2023/09/18 13:35:48;;;;;;;3.28;1.77;;;;;;;;;;5004119;28;20340;-78
2023/09/18 13:38:19;;;;;;;4.85;1.58;;;;;;;;;;5010338;28;20215;-78
2023/09/18 13:40:47;;;;;;;3.28;1.63;;;;;;;;;;5027905;28;20242;-76
2023/09/18 13:43:16;;;;;;;1.70;1.40;;;;;;;;;;5034868;28;20222;-77
2023/09/18 13:45:44;;;;;;;3.30;1.70;;;;;;;;;;5008488;28;20289;-79
2023/09/18 13:48:09;;;;;;;5.47;1.80;;;;;;;;;;5007472;28;20216;-77
2023/09/18 13:50:38;;;;;;;2.00;1.60;;;;;;;;;;5009612;28;20305;-79
2023/09/18 13:53:05;;;;;;;3.25;1.33;;;;;;;;;;5019138;28;20223;-79
2023/09/18 13:55:31;;;;;;;1.60;1.50;;;;;;;;;;5028565;28;20233;-78
2023/09/18 13:57:57;;;;;;;3.72;1.55;;;;;;;;;;5038789;28;20221;-77
2023/09/18 14:00:26;;;;;;;1.73;1.50;;;;;;;;;;5027835;28;20244;-79
2023/09/18 14:02:51;;;;;;;3.83;1.40;;;;;;;;;;5025699;28;20223;-79
2023/09/18 14:05:17;;;;;;;3.33;1.48;;;;;;;;;;5019359;28;20233;-78
2023/09/18 14:07:43;;;;;;;4.28;1.45;;;;;;;;;;5017460;28;20216;-79
2023/09/18 14:10:10;;;;;;;2.55;1.40;;;;;;;;;;5021261;28;20230;-79
2023/09/18 14:12:38;;;;;;;2.25;1.35;;;;;;;;;;5005425;28;20288;-79
2023/09/18 14:15:07;;;;;;;3.53;1.45;;;;;;;;;;5006833;28;20215;-78
2023/09/18 14:17:36;;;;;;;2.58;1.42;;;;;;;;;;5029423;28;20633;-78
2023/09/18 14:20:07;;;;;;;1.88;1.20;;;;;;;;;;5007711;28;20234;-78
2023/09/18 14:22:35;;;;;;;1.75;1.30;;;;;;;;;;5039223;28;20641;-78
2023/09/18 14:25:04;;;;;;;3.90;1.40;;;;;;;;;;5022501;28;20223;-79
2023/09/18 14:27:33;;;;;;;2.50;1.30;;;;;;;;;;5011512;28;20226;-78
2023/09/18 14:29:58;;;;;;;3.85;1.40;;;;;;;;;;5003455;28;20655;-76
2023/09/18 14:32:24;;;;;;;2.05;1.45;;;;;;;;;;5004882;28;20280;-78
2023/09/18 14:34:52;;;;;;;1.65;1.30;;;;;;;;;;5046219;28;20215;-77
2023/09/18 14:37:20;;;;;;;2.63;1.33;;;;;;;;;;5004181;28;20250;-79
2023/09/18 14:39:53;;;;;;;2.13;1.48;;;;;;;;;;5038598;28;20227;-80
2023/09/18 14:42:23;;;;;;;2.63;1.40;;;;;;;;;;5016468;28;20226;-79
2023/09/18 14:44:51;;;;;;;3.83;1.52;;;;;;;;;;5037893;28;20223;-79
2023/09/18 14:47:19;;;;;;;2.75;1.25;;;;;;;;;;5057506;28;20230;-76
2023/09/18 14:49:47;;;;;;;3.03;1.33;;;;;;;;;;5014767;28;20625;-77
2023/09/18 14:52:18;;;;;;;2.05;1.30;;;;;;;;;;4989449;28;20232;-78